sensor_id;sensor_type;location;lat;lon;timestamp;P1;durP1;ratioP1;P2;durP2;ratioP2
47239;SDS011;32978;53.586;10.052;2023-04-07T00:03:58;11.85;;;8.52;;
47239;SDS011;32978;53.586;10.052;2023-04-07T00:08:55;11.98;;;8.82;;
47239;SDS011;32978;53.586;10.052;2023-04-07T00:13:52;12.00;;;8.77;;
47239;SDS011;32978;53.586;10.052;2023-04-07T00:18:48;13.82;;;9.90;;
47239;SDS011;32978;53.586;10.052;2023-04-07T00:23:45;11.30;;;8.85;;
47239;SDS011;32978;53.586;10.052;2023-04-07T00:28:42;13.13;;;9.25;;
47239;SDS011;32978;53.586;10.052;2023-04-07T00:33:39;12.02;;;9.40;;
47239;SDS011;32978;53.586;10.052;2023-04-07T00:38:35;13.45;;;9.50;;
47239;SDS011;32978;53.586;10.052;2023-04-07T00:43:32;10.30;;;8.63;;
47239;SDS011;32978;53.586;10.052;2023-04-07T00:48:28;11.90;;;8.70;;
47239;SDS011;32978;53.586;10.052;2023-04-07T00:53:25;11.20;;;8.80;;
47239;SDS011;32978;53.586;10.052;2023-04-07T00:58:22;12.60;;;9.35;;
47239;SDS011;32978;53.586;10.052;2023-04-07T01:03:28;13.07;;;8.85;;
47239;SDS011;32978;53.586;10.052;2023-04-07T01:08:29;12.00;;;9.50;;
47239;SDS011;32978;53.586;10.052;2023-04-07T01:13:35;12.05;;;8.90;;
47239;SDS011;32978;53.586;10.052;2023-04-07T01:18:36;11.95;;;8.80;;
47239;SDS011;32978;53.586;10.052;2023-04-07T01:34:22;9.80;;;7.72;;
47239;SDS011;32978;53.586;10.052;2023-04-07T01:39:21;12.32;;;8.85;;
47239;SDS011;32978;53.586;10.052;2023-04-07T01:44:19;12.32;;;8.85;;
47239;SDS011;32978;53.586;10.052;2023-04-07T01:49:16;9.27;;;7.63;;
47239;SDS011;32978;53.586;10.052;2023-04-07T01:54:13;11.77;;;8.50;;
47239;SDS011;32978;53.586;10.052;2023-04-07T01:59:10;9.98;;;7.80;;
47239;SDS011;32978;53.586;10.052;2023-04-07T02:09:09;11.10;;;7.65;;
47239;SDS011;32978;53.586;10.052;2023-04-07T02:14:08;9.77;;;7.22;;
47239;SDS011;32978;53.586;10.052;2023-04-07T02:19:05;10.13;;;7.40;;
47239;SDS011;32978;53.586;10.052;2023-04-07T02:24:04;9.45;;;7.50;;
47239;SDS011;32978;53.586;10.052;2023-04-07T02:29:02;10.23;;;7.70;;
47239;SDS011;32978;53.586;10.052;2023-04-07T02:33:59;11.30;;;7.38;;
47239;SDS011;32978;53.586;10.052;2023-04-07T02:38:56;9.43;;;7.47;;
47239;SDS011;32978;53.586;10.052;2023-04-07T02:43:52;9.57;;;7.70;;
47239;SDS011;32978;53.586;10.052;2023-04-07T02:48:49;8.48;;;6.85;;
47239;SDS011;32978;53.586;10.052;2023-04-07T02:53:46;9.40;;;7.10;;
47239;SDS011;32978;53.586;10.052;2023-04-07T02:58:43;10.40;;;7.65;;
47239;SDS011;32978;53.586;10.052;2023-04-07T03:03:39;9.95;;;6.88;;
47239;SDS011;32978;53.586;10.052;2023-04-07T03:08:37;9.13;;;6.72;;
47239;SDS011;32978;53.586;10.052;2023-04-07T03:13:33;14.75;;;7.25;;
47239;SDS011;32978;53.586;10.052;2023-04-07T03:18:30;8.38;;;7.28;;
47239;SDS011;32978;53.586;10.052;2023-04-07T03:23:26;11.02;;;6.63;;
47239;SDS011;32978;53.586;10.052;2023-04-07T03:28:24;9.27;;;7.20;;
47239;SDS011;32978;53.586;10.052;2023-04-07T03:33:20;8.70;;;7.07;;
47239;SDS011;32978;53.586;10.052;2023-04-07T03:38:17;8.23;;;7.20;;
47239;SDS011;32978;53.586;10.052;2023-04-07T03:43:13;9.48;;;7.03;;
47239;SDS011;32978;53.586;10.052;2023-04-07T03:48:11;8.55;;;6.60;;
47239;SDS011;32978;53.586;10.052;2023-04-07T03:53:07;9.30;;;7.43;;
47239;SDS011;32978;53.586;10.052;2023-04-07T03:58:04;10.10;;;7.35;;
47239;SDS011;32978;53.586;10.052;2023-04-07T04:03:01;9.45;;;6.88;;
47239;SDS011;32978;53.586;10.052;2023-04-07T04:07:58;9.40;;;6.63;;
47239;SDS011;32978;53.586;10.052;2023-04-07T04:12:54;10.02;;;6.93;;
47239;SDS011;32978;53.586;10.052;2023-04-07T04:17:50;9.68;;;6.68;;
47239;SDS011;32978;53.586;10.052;2023-04-07T04:22:47;9.15;;;7.30;;
47239;SDS011;32978;53.586;10.052;2023-04-07T04:27:43;10.07;;;7.50;;
47239;SDS011;32978;53.586;10.052;2023-04-07T04:32:40;9.23;;;7.57;;
47239;SDS011;32978;53.586;10.052;2023-04-07T04:37:36;10.38;;;7.30;;
47239;SDS011;32978;53.586;10.052;2023-04-07T04:42:33;8.60;;;6.63;;
47239;SDS011;32978;53.586;10.052;2023-04-07T04:47:30;8.13;;;7.00;;
47239;SDS011;32978;53.586;10.052;2023-04-07T04:52:27;8.68;;;7.25;;
47239;SDS011;32978;53.586;10.052;2023-04-07T04:57:23;11.13;;;7.63;;
47239;SDS011;32978;53.586;10.052;2023-04-07T05:02:20;8.90;;;7.15;;
47239;SDS011;32978;53.586;10.052;2023-04-07T05:07:17;10.90;;;8.07;;
47239;SDS011;32978;53.586;10.052;2023-04-07T05:12:14;9.60;;;7.18;;
47239;SDS011;32978;53.586;10.052;2023-04-07T05:17:10;11.07;;;8.95;;
47239;SDS011;32978;53.586;10.052;2023-04-07T05:22:07;8.82;;;7.20;;
47239;SDS011;32978;53.586;10.052;2023-04-07T05:27:03;10.10;;;7.22;;
47239;SDS011;32978;53.586;10.052;2023-04-07T05:32:00;9.88;;;6.68;;
47239;SDS011;32978;53.586;10.052;2023-04-07T05:36:56;8.80;;;6.93;;
47239;SDS011;32978;53.586;10.052;2023-04-07T05:41:53;9.80;;;7.50;;
47239;SDS011;32978;53.586;10.052;2023-04-07T05:46:49;10.93;;;7.32;;
47239;SDS011;32978;53.586;10.052;2023-04-07T05:51:46;9.57;;;7.43;;
47239;SDS011;32978;53.586;10.052;2023-04-07T05:56:44;10.23;;;7.07;;
47239;SDS011;32978;53.586;10.052;2023-04-07T06:01:41;13.15;;;7.40;;
47239;SDS011;32978;53.586;10.052;2023-04-07T06:06:37;12.75;;;7.60;;
47239;SDS011;32978;53.586;10.052;2023-04-07T06:11:34;9.77;;;7.25;;
47239;SDS011;32978;53.586;10.052;2023-04-07T06:16:30;9.95;;;7.50;;
47239;SDS011;32978;53.586;10.052;2023-04-07T06:21:27;10.20;;;8.10;;
47239;SDS011;32978;53.586;10.052;2023-04-07T06:26:24;10.68;;;7.93;;
47239;SDS011;32978;53.586;10.052;2023-04-07T06:31:20;10.35;;;7.80;;
47239;SDS011;32978;53.586;10.052;2023-04-07T06:36:17;11.50;;;8.10;;
47239;SDS011;32978;53.586;10.052;2023-04-07T06:41:13;10.00;;;7.07;;
47239;SDS011;32978;53.586;10.052;2023-04-07T06:46:12;10.80;;;8.07;;
47239;SDS011;32978;53.586;10.052;2023-04-07T06:51:08;9.05;;;7.38;;
47239;SDS011;32978;53.586;10.052;2023-04-07T06:56:07;9.13;;;7.93;;
47239;SDS011;32978;53.586;10.052;2023-04-07T07:01:06;9.95;;;7.43;;
47239;SDS011;32978;53.586;10.052;2023-04-07T07:06:03;8.57;;;6.78;;
47239;SDS011;32978;53.586;10.052;2023-04-07T07:10:59;10.73;;;7.20;;
47239;SDS011;32978;53.586;10.052;2023-04-07T07:15:56;10.10;;;7.55;;
47239;SDS011;32978;53.586;10.052;2023-04-07T07:20:52;8.88;;;7.10;;
47239;SDS011;32978;53.586;10.052;2023-04-07T07:25:49;9.68;;;7.90;;
47239;SDS011;32978;53.586;10.052;2023-04-07T07:30:45;9.85;;;6.85;;
47239;SDS011;32978;53.586;10.052;2023-04-07T07:35:42;12.50;;;7.90;;
47239;SDS011;32978;53.586;10.052;2023-04-07T07:40:38;10.80;;;7.20;;
47239;SDS011;32978;53.586;10.052;2023-04-07T07:45:35;13.85;;;7.22;;
47239;SDS011;32978;53.586;10.052;2023-04-07T07:50:31;9.05;;;7.20;;
47239;SDS011;32978;53.586;10.052;2023-04-07T07:55:27;11.70;;;7.50;;
47239;SDS011;32978;53.586;10.052;2023-04-07T08:00:24;13.00;;;7.75;;
47239;SDS011;32978;53.586;10.052;2023-04-07T08:05:22;8.93;;;7.45;;
47239;SDS011;32978;53.586;10.052;2023-04-07T08:10:18;10.15;;;7.43;;
47239;SDS011;32978;53.586;10.052;2023-04-07T08:15:15;11.63;;;7.80;;
47239;SDS011;32978;53.586;10.052;2023-04-07T08:20:12;10.38;;;6.85;;
47239;SDS011;32978;53.586;10.052;2023-04-07T08:25:08;8.82;;;6.80;;
47239;SDS011;32978;53.586;10.052;2023-04-07T08:30:05;11.98;;;7.47;;
47239;SDS011;32978;53.586;10.052;2023-04-07T08:35:02;9.07;;;7.28;;
47239;SDS011;32978;53.586;10.052;2023-04-07T08:39:59;9.40;;;6.78;;
47239;SDS011;32978;53.586;10.052;2023-04-07T08:44:57;8.20;;;6.55;;
47239;SDS011;32978;53.586;10.052;2023-04-07T08:50:02;11.23;;;7.25;;
47239;SDS011;32978;53.586;10.052;2023-04-07T08:55:00;9.38;;;7.57;;
47239;SDS011;32978;53.586;10.052;2023-04-07T08:59:59;8.93;;;6.95;;
47239;SDS011;32978;53.586;10.052;2023-04-07T09:05:04;10.45;;;7.57;;
47239;SDS011;32978;53.586;10.052;2023-04-07T09:10:02;7.57;;;6.28;;
47239;SDS011;32978;53.586;10.052;2023-04-07T09:14:59;7.35;;;6.57;;
47239;SDS011;32978;53.586;10.052;2023-04-07T09:19:56;7.97;;;5.72;;
47239;SDS011;32978;53.586;10.052;2023-04-07T09:24:54;9.15;;;7.10;;
47239;SDS011;32978;53.586;10.052;2023-04-07T09:30:12;9.07;;;6.82;;
47239;SDS011;32978;53.586;10.052;2023-04-07T09:35:10;10.25;;;7.53;;
47239;SDS011;32978;53.586;10.052;2023-04-07T09:40:07;8.52;;;6.93;;
47239;SDS011;32978;53.586;10.052;2023-04-07T09:45:04;13.15;;;7.82;;
47239;SDS011;32978;53.586;10.052;2023-04-07T09:50:00;11.57;;;7.70;;
47239;SDS011;32978;53.586;10.052;2023-04-07T09:55:02;11.05;;;6.95;;
47239;SDS011;32978;53.586;10.052;2023-04-07T10:00:01;9.10;;;7.78;;
47239;SDS011;32978;53.586;10.052;2023-04-07T10:04:58;8.63;;;7.38;;
47239;SDS011;32978;53.586;10.052;2023-04-07T10:09:54;8.43;;;6.68;;
47239;SDS011;32978;53.586;10.052;2023-04-07T10:14:52;8.00;;;7.10;;
47239;SDS011;32978;53.586;10.052;2023-04-07T10:19:50;11.13;;;8.18;;
47239;SDS011;32978;53.586;10.052;2023-04-07T10:30:02;8.80;;;7.35;;
47239;SDS011;32978;53.586;10.052;2023-04-07T10:35:02;8.55;;;7.18;;
47239;SDS011;32978;53.586;10.052;2023-04-07T10:45:13;9.52;;;6.68;;
47239;SDS011;32978;53.586;10.052;2023-04-07T10:50:20;7.85;;;6.90;;
47239;SDS011;32978;53.586;10.052;2023-04-07T10:55:28;9.52;;;6.65;;
47239;SDS011;32978;53.586;10.052;2023-04-07T11:00:29;10.18;;;7.40;;
47239;SDS011;32978;53.586;10.052;2023-04-07T11:05:25;9.07;;;7.05;;
47239;SDS011;32978;53.586;10.052;2023-04-07T11:10:21;9.77;;;7.13;;
47239;SDS011;32978;53.586;10.052;2023-04-07T11:15:19;10.48;;;7.38;;
47239;SDS011;32978;53.586;10.052;2023-04-07T11:20:17;8.38;;;7.47;;
47239;SDS011;32978;53.586;10.052;2023-04-07T11:25:19;8.23;;;7.43;;
47239;SDS011;32978;53.586;10.052;2023-04-07T11:30:17;7.10;;;6.40;;
47239;SDS011;32978;53.586;10.052;2023-04-07T11:35:13;7.97;;;7.18;;
47239;SDS011;32978;53.586;10.052;2023-04-07T11:40:11;7.90;;;6.70;;
47239;SDS011;32978;53.586;10.052;2023-04-07T11:45:15;7.55;;;6.80;;
47239;SDS011;32978;53.586;10.052;2023-04-07T11:50:13;6.77;;;6.07;;
47239;SDS011;32978;53.586;10.052;2023-04-07T11:55:19;7.22;;;6.53;;
47239;SDS011;32978;53.586;10.052;2023-04-07T12:00:18;8.57;;;7.20;;
47239;SDS011;32978;53.586;10.052;2023-04-07T12:05:15;9.45;;;7.40;;
47239;SDS011;32978;53.586;10.052;2023-04-07T12:10:19;7.28;;;6.57;;
47239;SDS011;32978;53.586;10.052;2023-04-07T12:15:16;8.02;;;6.60;;
47239;SDS011;32978;53.586;10.052;2023-04-07T12:20:13;7.75;;;6.80;;
47239;SDS011;32978;53.586;10.052;2023-04-07T12:25:10;7.38;;;6.32;;
47239;SDS011;32978;53.586;10.052;2023-04-07T12:30:07;7.25;;;6.57;;
47239;SDS011;32978;53.586;10.052;2023-04-07T12:35:04;7.68;;;6.88;;
47239;SDS011;32978;53.586;10.052;2023-04-07T12:40:01;6.78;;;6.07;;
47239;SDS011;32978;53.586;10.052;2023-04-07T12:44:57;11.70;;;6.40;;
47239;SDS011;32978;53.586;10.052;2023-04-07T12:49:54;6.70;;;6.10;;
47239;SDS011;32978;53.586;10.052;2023-04-07T12:54:51;6.78;;;6.03;;
47239;SDS011;32978;53.586;10.052;2023-04-07T12:59:48;6.15;;;5.55;;
47239;SDS011;32978;53.586;10.052;2023-04-07T13:04:44;6.47;;;5.88;;
47239;SDS011;32978;53.586;10.052;2023-04-07T13:09:41;7.00;;;5.55;;
47239;SDS011;32978;53.586;10.052;2023-04-07T13:14:39;6.72;;;5.65;;
47239;SDS011;32978;53.586;10.052;2023-04-07T13:19:52;5.40;;;4.90;;
47239;SDS011;32978;53.586;10.052;2023-04-07T13:24:49;6.25;;;5.65;;
47239;SDS011;32978;53.586;10.052;2023-04-07T13:29:45;6.32;;;5.72;;
47239;SDS011;32978;53.586;10.052;2023-04-07T13:34:42;6.65;;;5.95;;
47239;SDS011;32978;53.586;10.052;2023-04-07T13:39:39;6.10;;;5.60;;
47239;SDS011;32978;53.586;10.052;2023-04-07T13:44:36;6.60;;;6.00;;
47239;SDS011;32978;53.586;10.052;2023-04-07T13:49:34;6.15;;;5.60;;
47239;SDS011;32978;53.586;10.052;2023-04-07T13:54:31;6.95;;;6.25;;
47239;SDS011;32978;53.586;10.052;2023-04-07T13:59:27;6.65;;;6.15;;
47239;SDS011;32978;53.586;10.052;2023-04-07T14:04:24;7.35;;;6.30;;
47239;SDS011;32978;53.586;10.052;2023-04-07T14:09:20;8.20;;;6.38;;
47239;SDS011;32978;53.586;10.052;2023-04-07T14:14:17;7.68;;;6.03;;
47239;SDS011;32978;53.586;10.052;2023-04-07T14:19:13;6.88;;;5.95;;
47239;SDS011;32978;53.586;10.052;2023-04-07T14:24:10;7.25;;;6.30;;
47239;SDS011;32978;53.586;10.052;2023-04-07T14:29:07;7.20;;;6.50;;
47239;SDS011;32978;53.586;10.052;2023-04-07T14:34:03;8.40;;;6.43;;
47239;SDS011;32978;53.586;10.052;2023-04-07T14:39:00;10.63;;;6.60;;
47239;SDS011;32978;53.586;10.052;2023-04-07T14:43:57;7.47;;;6.15;;
47239;SDS011;32978;53.586;10.052;2023-04-07T14:48:53;6.95;;;6.18;;
47239;SDS011;32978;53.586;10.052;2023-04-07T14:53:50;8.73;;;6.75;;
47239;SDS011;32978;53.586;10.052;2023-04-07T14:58:51;6.50;;;5.90;;
47239;SDS011;32978;53.586;10.052;2023-04-07T15:03:47;6.28;;;5.65;;
47239;SDS011;32978;53.586;10.052;2023-04-07T15:08:44;7.15;;;6.20;;
47239;SDS011;32978;53.586;10.052;2023-04-07T15:13:41;10.60;;;6.70;;
47239;SDS011;32978;53.586;10.052;2023-04-07T15:18:39;7.47;;;6.20;;
47239;SDS011;32978;53.586;10.052;2023-04-07T15:23:37;8.55;;;6.47;;
47239;SDS011;32978;53.586;10.052;2023-04-07T15:28:34;7.47;;;5.95;;
47239;SDS011;32978;53.586;10.052;2023-04-07T15:33:31;9.10;;;7.15;;
47239;SDS011;32978;53.586;10.052;2023-04-07T15:38:27;6.95;;;6.25;;
47239;SDS011;32978;53.586;10.052;2023-04-07T15:43:24;6.88;;;6.22;;
47239;SDS011;32978;53.586;10.052;2023-04-07T15:48:20;9.27;;;6.85;;
47239;SDS011;32978;53.586;10.052;2023-04-07T15:53:17;9.23;;;6.47;;
47239;SDS011;32978;53.586;10.052;2023-04-07T15:58:13;8.85;;;6.22;;
47239;SDS011;32978;53.586;10.052;2023-04-07T16:03:10;8.57;;;6.68;;
47239;SDS011;32978;53.586;10.052;2023-04-07T16:08:07;8.18;;;6.32;;
47239;SDS011;32978;53.586;10.052;2023-04-07T16:13:03;6.22;;;5.63;;
47239;SDS011;32978;53.586;10.052;2023-04-07T16:18:00;7.78;;;6.70;;
47239;SDS011;32978;53.586;10.052;2023-04-07T16:22:59;8.52;;;7.03;;
47239;SDS011;32978;53.586;10.052;2023-04-07T16:27:56;9.63;;;7.70;;
47239;SDS011;32978;53.586;10.052;2023-04-07T16:32:52;13.00;;;7.78;;
47239;SDS011;32978;53.586;10.052;2023-04-07T16:37:49;7.88;;;7.07;;
47239;SDS011;32978;53.586;10.052;2023-04-07T16:42:46;9.73;;;7.40;;
47239;SDS011;32978;53.586;10.052;2023-04-07T16:47:42;10.77;;;8.10;;
47239;SDS011;32978;53.586;10.052;2023-04-07T16:52:39;8.57;;;6.97;;
47239;SDS011;32978;53.586;10.052;2023-04-07T16:57:36;7.13;;;6.35;;
47239;SDS011;32978;53.586;10.052;2023-04-07T17:02:32;10.30;;;7.45;;
47239;SDS011;32978;53.586;10.052;2023-04-07T17:07:29;7.10;;;6.40;;
47239;SDS011;32978;53.586;10.052;2023-04-07T17:12:26;7.30;;;6.60;;
47239;SDS011;32978;53.586;10.052;2023-04-07T17:17:23;8.98;;;6.40;;
47239;SDS011;32978;53.586;10.052;2023-04-07T17:22:19;7.43;;;6.55;;
47239;SDS011;32978;53.586;10.052;2023-04-07T17:27:16;6.47;;;5.88;;
47239;SDS011;32978;53.586;10.052;2023-04-07T17:32:13;6.70;;;5.97;;
47239;SDS011;32978;53.586;10.052;2023-04-07T17:37:09;7.32;;;6.15;;
47239;SDS011;32978;53.586;10.052;2023-04-07T17:42:06;7.38;;;6.13;;
47239;SDS011;32978;53.586;10.052;2023-04-07T17:47:02;8.88;;;7.15;;
47239;SDS011;32978;53.586;10.052;2023-04-07T17:51:58;10.00;;;7.38;;
47239;SDS011;32978;53.586;10.052;2023-04-07T17:56:55;10.50;;;8.52;;
47239;SDS011;32978;53.586;10.052;2023-04-07T18:01:52;12.43;;;8.57;;
47239;SDS011;32978;53.586;10.052;2023-04-07T18:06:49;10.27;;;8.10;;
47239;SDS011;32978;53.586;10.052;2023-04-07T18:11:46;12.85;;;8.18;;
47239;SDS011;32978;53.586;10.052;2023-04-07T18:16:42;10.50;;;7.82;;
47239;SDS011;32978;53.586;10.052;2023-04-07T18:21:39;8.07;;;7.28;;
47239;SDS011;32978;53.586;10.052;2023-04-07T18:26:35;8.60;;;7.32;;
47239;SDS011;32978;53.586;10.052;2023-04-07T18:31:32;9.57;;;7.15;;
47239;SDS011;32978;53.586;10.052;2023-04-07T18:36:29;8.43;;;7.53;;
47239;SDS011;32978;53.586;10.052;2023-04-07T18:41:25;10.82;;;7.28;;
47239;SDS011;32978;53.586;10.052;2023-04-07T18:46:22;11.10;;;7.32;;
47239;SDS011;32978;53.586;10.052;2023-04-07T18:51:18;9.50;;;7.80;;
47239;SDS011;32978;53.586;10.052;2023-04-07T18:56:15;10.65;;;8.63;;
47239;SDS011;32978;53.586;10.052;2023-04-07T19:01:11;11.20;;;8.68;;
47239;SDS011;32978;53.586;10.052;2023-04-07T19:06:10;10.68;;;9.15;;
47239;SDS011;32978;53.586;10.052;2023-04-07T19:11:10;9.10;;;8.20;;
47239;SDS011;32978;53.586;10.052;2023-04-07T19:16:07;13.52;;;9.80;;
47239;SDS011;32978;53.586;10.052;2023-04-07T19:21:03;13.73;;;9.23;;
47239;SDS011;32978;53.586;10.052;2023-04-07T19:26:01;10.95;;;9.73;;
47239;SDS011;32978;53.586;10.052;2023-04-07T19:30:58;11.40;;;9.32;;
47239;SDS011;32978;53.586;10.052;2023-04-07T19:35:54;12.68;;;9.07;;
47239;SDS011;32978;53.586;10.052;2023-04-07T19:40:51;12.52;;;9.15;;
47239;SDS011;32978;53.586;10.052;2023-04-07T19:45:48;11.95;;;9.73;;
47239;SDS011;32978;53.586;10.052;2023-04-07T19:50:45;13.40;;;8.98;;
47239;SDS011;32978;53.586;10.052;2023-04-07T19:55:46;11.85;;;9.40;;
47239;SDS011;32978;53.586;10.052;2023-04-07T20:00:44;10.77;;;8.68;;
47239;SDS011;32978;53.586;10.052;2023-04-07T20:05:43;12.85;;;10.52;;
47239;SDS011;32978;53.586;10.052;2023-04-07T20:10:40;10.02;;;8.63;;
47239;SDS011;32978;53.586;10.052;2023-04-07T20:15:36;10.75;;;8.55;;
47239;SDS011;32978;53.586;10.052;2023-04-07T20:20:33;8.93;;;8.10;;
47239;SDS011;32978;53.586;10.052;2023-04-07T20:25:29;9.60;;;7.55;;
47239;SDS011;32978;53.586;10.052;2023-04-07T20:30:26;8.60;;;7.80;;
47239;SDS011;32978;53.586;10.052;2023-04-07T20:35:22;10.63;;;8.02;;
47239;SDS011;32978;53.586;10.052;2023-04-07T20:40:19;8.75;;;7.88;;
47239;SDS011;32978;53.586;10.052;2023-04-07T20:45:15;7.90;;;7.10;;
47239;SDS011;32978;53.586;10.052;2023-04-07T20:50:12;8.90;;;7.13;;
47239;SDS011;32978;53.586;10.052;2023-04-07T20:55:08;8.88;;;7.95;;
47239;SDS011;32978;53.586;10.052;2023-04-07T21:00:05;9.40;;;7.60;;
47239;SDS011;32978;53.586;10.052;2023-04-07T21:05:03;10.07;;;8.27;;
47239;SDS011;32978;53.586;10.052;2023-04-07T21:09:59;10.30;;;7.03;;
47239;SDS011;32978;53.586;10.052;2023-04-07T21:14:56;10.27;;;7.65;;
47239;SDS011;32978;53.586;10.052;2023-04-07T21:19:52;13.13;;;7.90;;
47239;SDS011;32978;53.586;10.052;2023-04-07T21:24:51;9.65;;;7.18;;
47239;SDS011;32978;53.586;10.052;2023-04-07T21:29:47;11.07;;;8.45;;
47239;SDS011;32978;53.586;10.052;2023-04-07T21:34:44;13.20;;;9.15;;
47239;SDS011;32978;53.586;10.052;2023-04-07T21:39:40;12.30;;;8.90;;
47239;SDS011;32978;53.586;10.052;2023-04-07T21:44:37;13.73;;;9.57;;
47239;SDS011;32978;53.586;10.052;2023-04-07T21:49:34;12.38;;;8.75;;
47239;SDS011;32978;53.586;10.052;2023-04-07T21:54:33;14.57;;;9.85;;
47239;SDS011;32978;53.586;10.052;2023-04-07T21:59:29;14.98;;;10.20;;
47239;SDS011;32978;53.586;10.052;2023-04-07T22:04:27;13.50;;;9.90;;
47239;SDS011;32978;53.586;10.052;2023-04-07T22:09:24;12.55;;;9.73;;
47239;SDS011;32978;53.586;10.052;2023-04-07T22:14:22;15.02;;;9.98;;
47239;SDS011;32978;53.586;10.052;2023-04-07T22:19:20;12.80;;;9.98;;
47239;SDS011;32978;53.586;10.052;2023-04-07T22:24:16;13.18;;;10.13;;
47239;SDS011;32978;53.586;10.052;2023-04-07T22:29:13;16.80;;;10.40;;
47239;SDS011;32978;53.586;10.052;2023-04-07T22:34:09;14.05;;;10.27;;
47239;SDS011;32978;53.586;10.052;2023-04-07T22:39:06;15.82;;;11.18;;
47239;SDS011;32978;53.586;10.052;2023-04-07T22:44:03;13.05;;;9.85;;
47239;SDS011;32978;53.586;10.052;2023-04-07T22:49:00;15.65;;;11.07;;
47239;SDS011;32978;53.586;10.052;2023-04-07T22:53:56;18.10;;;11.82;;
47239;SDS011;32978;53.586;10.052;2023-04-07T22:58:53;13.73;;;9.85;;
47239;SDS011;32978;53.586;10.052;2023-04-07T23:03:49;14.48;;;10.82;;
47239;SDS011;32978;53.586;10.052;2023-04-07T23:08:46;14.68;;;10.20;;
47239;SDS011;32978;53.586;10.052;2023-04-07T23:13:42;18.23;;;12.52;;
47239;SDS011;32978;53.586;10.052;2023-04-07T23:18:39;16.30;;;11.32;;
47239;SDS011;32978;53.586;10.052;2023-04-07T23:23:36;18.60;;;11.80;;
47239;SDS011;32978;53.586;10.052;2023-04-07T23:28:34;22.65;;;11.40;;
47239;SDS011;32978;53.586;10.052;2023-04-07T23:33:30;21.77;;;13.50;;
47239;SDS011;32978;53.586;10.052;2023-04-07T23:38:27;22.05;;;11.90;;
47239;SDS011;32978;53.586;10.052;2023-04-07T23:43:23;19.58;;;12.73;;
47239;SDS011;32978;53.586;10.052;2023-04-07T23:48:20;17.73;;;11.88;;
47239;SDS011;32978;53.586;10.052;2023-04-07T23:53:16;16.60;;;11.32;;
47239;SDS011;32978;53.586;10.052;2023-04-07T23:58:13;18.58;;;12.63;;
